createdAt,value
2019-03-05T00:00:42.264Z,98161.20
2019-03-05T00:03:15.437Z,98162.89
2019-03-05T00:05:48.499Z,98168.35
2019-03-05T00:08:21.530Z,98162.43
2019-03-05T00:10:54.520Z,98158.92
2019-03-05T00:13:27.950Z,98159.33
2019-03-05T00:16:01.474Z,98169.39
2019-03-05T00:18:34.547Z,98156.23
2019-03-05T00:21:07.593Z,98150.69
2019-03-05T00:23:56.255Z,98136.83
2019-03-05T00:26:31.464Z,98160.83
2019-03-05T00:29:40.345Z,98157.35
2019-03-05T00:32:13.363Z,98169.66
2019-03-05T00:35:35.722Z,98151.92
2019-03-05T00:38:27.337Z,98164.52
2019-03-05T00:41:33.728Z,98156.42
2019-03-05T00:44:32.826Z,98146.13
2019-03-05T00:47:35.757Z,98150.84
2019-03-05T00:50:32.206Z,98154.69
2019-03-05T00:53:34.533Z,98149.90
2019-03-05T00:56:27.382Z,98166.76
2019-03-05T00:59:25.822Z,98179.73
2019-03-05T01:02:16.125Z,98210.73
2019-03-05T01:05:51.723Z,98212.09
2019-03-05T01:08:26.916Z,98190.45
2019-03-05T01:11:00.532Z,98200.74
2019-03-05T01:13:33.220Z,98199.72
2019-03-05T01:16:07.589Z,98200.88
2019-03-05T01:18:41.264Z,98194.52
2019-03-05T01:21:14.807Z,98201.78
2019-03-05T01:23:48.158Z,98206.09
2019-03-05T01:26:21.269Z,98207.38
2019-03-05T01:28:54.752Z,98200.80
2019-03-05T01:31:40.521Z,98196.45
2019-03-05T01:34:24.049Z,98209.17
2019-03-05T01:36:58.895Z,98205.02
2019-03-05T01:39:57.480Z,98210.78
2019-03-05T01:42:29.936Z,98220.17
2019-03-05T01:45:04.214Z,98221.25
2019-03-05T01:47:37.817Z,98218.97
2019-03-05T01:50:12.748Z,98218.16
2019-03-05T01:52:46.092Z,98209.70
2019-03-05T01:55:19.479Z,98216.81
2019-03-05T01:57:52.496Z,98222.83
2019-03-05T02:00:25.113Z,98222.42
2019-03-05T02:02:58.282Z,98225.13
2019-03-05T02:05:31.300Z,98224.37
2019-03-05T02:08:04.025Z,98236.72
2019-03-05T02:10:37.103Z,98237.50
2019-03-05T02:13:10.014Z,98232.20
2019-03-05T02:15:44.516Z,98240.52
2019-03-05T02:18:18.830Z,98239.64
2019-03-05T02:20:52.562Z,98242.30
2019-03-05T02:23:36.800Z,98233.90
2019-03-05T02:27:06.182Z,98235.22
2019-03-05T02:30:17.338Z,98239.10
2019-03-05T02:33:21.928Z,98236.97
2019-03-05T02:36:06.912Z,98236.03
2019-03-05T02:39:11.645Z,98242.59
2019-03-05T02:42:17.613Z,98245.75
2019-03-05T02:45:23.286Z,98236.22
2019-03-05T02:48:14.410Z,98244.78
2019-03-05T02:51:13.325Z,98248.60
2019-03-05T02:54:22.870Z,98242.99
2019-03-05T02:57:05.960Z,98252.84
2019-03-05T02:59:39.074Z,98253.44
2019-03-05T03:02:44.455Z,98252.05
2019-03-05T03:05:21.852Z,98248.79
2019-03-05T03:07:54.747Z,98255.72
2019-03-05T03:10:28.538Z,98257.92
2019-03-05T03:13:02.414Z,98256.91
2019-03-05T03:15:35.535Z,98256.54
2019-03-05T03:18:09.515Z,98269.05
2019-03-05T03:20:43.083Z,98255.19
2019-03-05T03:23:16.547Z,98256.44
2019-03-05T03:25:50.310Z,98269.64
2019-03-05T03:28:25.316Z,98269.61
2019-03-05T03:30:59.820Z,98267.26
2019-03-05T03:33:32.727Z,98270.48
2019-03-05T03:36:09.054Z,98276.88
2019-03-05T03:38:42.222Z,98269.36
2019-03-05T03:41:16.082Z,98275.47
2019-03-05T03:43:50.489Z,98278.17
2019-03-05T03:46:23.594Z,98278.45
2019-03-05T03:48:58.474Z,98278.89
2019-03-05T03:51:32.039Z,98279.11
2019-03-05T03:54:05.001Z,98279.71
2019-03-05T03:56:38.274Z,98277.45
2019-03-05T03:59:13.015Z,98280.52
2019-03-05T04:01:48.965Z,98267.26
2019-03-05T04:04:22.156Z,98278.33
2019-03-05T04:06:55.920Z,98289.62
2019-03-05T04:09:29.643Z,98293.81
2019-03-05T04:12:02.559Z,98293.75
2019-03-05T04:14:34.952Z,98273.23
2019-03-05T04:17:08.311Z,98294.28
2019-03-05T04:19:41.358Z,98298.31
2019-03-05T04:22:15.987Z,98303.59
2019-03-05T04:24:49.238Z,98311.08
2019-03-05T04:27:22.923Z,98312.20
2019-03-05T04:29:55.529Z,98306.91
2019-03-05T04:32:29.800Z,98316.84
2019-03-05T04:35:02.943Z,98315.97
2019-03-05T04:37:36.823Z,98316.80
2019-03-05T04:40:10.195Z,98314.41
2019-03-05T04:42:44.223Z,98316.18
2019-03-05T04:45:53.284Z,98321.23
2019-03-05T04:48:27.234Z,98334.18
2019-03-05T04:51:06.723Z,98337.16
2019-03-05T04:53:39.724Z,98334.95
2019-03-05T04:56:13.041Z,98342.73
2019-03-05T04:58:47.443Z,98339.98
2019-03-05T05:01:19.965Z,98335.90
2019-03-05T05:03:52.985Z,98339.45
2019-03-05T05:06:26.001Z,98342.51
2019-03-05T05:09:01.045Z,98333.52
2019-03-05T05:11:37.402Z,98339.23
2019-03-05T05:14:11.410Z,98338.98
2019-03-05T05:16:44.738Z,98333.71
2019-03-05T05:19:19.955Z,98351.12
2019-03-05T05:21:52.421Z,98352.35
2019-03-05T05:24:25.681Z,98359.72
2019-03-05T05:27:00.148Z,98354.31
2019-03-05T05:29:33.634Z,98348.76
2019-03-05T05:32:06.728Z,98363.53
2019-03-05T05:34:40.591Z,98361.41
2019-03-05T05:37:14.463Z,98353.34
2019-03-05T05:40:21.959Z,98363.69
2019-03-05T05:42:55.719Z,98360.99
2019-03-05T05:45:46.121Z,98360.80
2019-03-05T05:48:19.006Z,98355.84
2019-03-05T05:50:52.194Z,98364.75
2019-03-05T05:53:25.801Z,98365.27
2019-03-05T05:55:58.441Z,98376.55
2019-03-05T05:58:31.931Z,98373.12
2019-03-05T06:01:08.442Z,98371.02
2019-03-05T06:03:41.850Z,98364.85
2019-03-05T06:06:15.352Z,98365.31
2019-03-05T06:08:48.946Z,98368.73
2019-03-05T06:11:22.650Z,98365.05
2019-03-05T06:13:56.051Z,98369.13
2019-03-05T06:16:29.441Z,98366.72
2019-03-05T06:19:02.742Z,98368.67
2019-03-05T06:21:36.523Z,98382.09
2019-03-05T06:24:09.956Z,98369.69
2019-03-05T06:26:43.497Z,98380.70
2019-03-05T06:29:17.048Z,98380.50
2019-03-05T06:31:50.451Z,98385.77
2019-03-05T06:34:23.606Z,98398.63
2019-03-05T06:36:57.444Z,98405.11
2019-03-05T06:39:30.511Z,98397.12
2019-03-05T06:42:03.144Z,98409.86
2019-03-05T06:44:36.499Z,98408.04
2019-03-05T06:47:09.599Z,98413.65
2019-03-05T06:49:42.200Z,98405.48
2019-03-05T06:52:15.168Z,98409.48
2019-03-05T06:54:48.501Z,98420.78
2019-03-05T06:57:21.192Z,98410.09
2019-03-05T06:59:56.405Z,98406.61
2019-03-05T07:02:29.335Z,98413.59
2019-03-05T07:05:03.122Z,98415.35
2019-03-05T07:07:37.510Z,98418.92
2019-03-05T07:10:32.186Z,98409.91
2019-03-05T07:13:18.591Z,98427.42
2019-03-05T07:16:21.188Z,98437.17
2019-03-05T07:19:03.995Z,98438.67
2019-03-05T07:22:01.578Z,98446.23
2019-03-05T07:25:02.920Z,98456.47
2019-03-05T07:27:38.094Z,98461.30
2019-03-05T07:30:18.817Z,98458.73
2019-03-05T07:32:51.488Z,98461.98
2019-03-05T07:35:25.517Z,98460.80
2019-03-05T07:37:59.215Z,98463.83
2019-03-05T07:40:32.710Z,98466.19
2019-03-05T07:43:06.136Z,98449.03
2019-03-05T07:45:39.104Z,98457.03
2019-03-05T07:48:12.521Z,98459.58
2019-03-05T07:50:45.975Z,98457.44
2019-03-05T07:53:18.970Z,98458.41
2019-03-05T07:55:52.275Z,98468.80
2019-03-05T07:58:24.540Z,98473.56
2019-03-05T08:00:57.529Z,98471.66
2019-03-05T08:03:31.248Z,98481.25
2019-03-05T08:06:04.721Z,98479.95
2019-03-05T08:09:14.394Z,98484.63
2019-03-05T08:11:47.342Z,98475.42
2019-03-05T08:14:47.199Z,98474.91
2019-03-05T08:17:21.150Z,98477.33
2019-03-05T08:19:54.507Z,98479.55
2019-03-05T08:22:27.177Z,98486.77
2019-03-05T08:25:00.350Z,98485.02
2019-03-05T08:27:34.384Z,98494.31
2019-03-05T08:30:14.220Z,98500.61
2019-03-05T08:32:45.390Z,98498.11
2019-03-05T08:35:20.281Z,98499.04
2019-03-05T08:37:53.938Z,98515.03
2019-03-05T08:40:27.282Z,98518.70
2019-03-05T08:43:00.644Z,98513.77
2019-03-05T08:45:35.252Z,98527.95
2019-03-05T08:48:08.634Z,98514.66
2019-03-05T08:50:42.034Z,98529.83
2019-03-05T08:53:16.841Z,98537.55
2019-03-05T08:55:50.318Z,98543.27
2019-03-05T08:58:23.331Z,98547.52
2019-03-05T09:00:56.419Z,98550.73
2019-03-05T09:03:29.351Z,98557.62
2019-03-05T09:06:02.632Z,98562.14
2019-03-05T09:08:38.399Z,98554.52
2019-03-05T09:11:10.624Z,98555.68
2019-03-05T09:13:45.891Z,98565.91
2019-03-05T09:16:19.183Z,98567.59
2019-03-05T09:18:52.763Z,98563.86
2019-03-05T09:21:27.213Z,98571.27
2019-03-05T09:24:02.024Z,98569.86
2019-03-05T09:26:35.450Z,98563.02
2019-03-05T09:29:08.994Z,98565.21
2019-03-05T09:31:42.523Z,98574.63
2019-03-05T09:34:16.172Z,98582.58
2019-03-05T09:36:51.315Z,98572.30
2019-03-05T09:39:24.485Z,98582.34
2019-03-05T09:41:57.853Z,98582.30
2019-03-05T09:44:30.976Z,98577.93
2019-03-05T09:47:04.388Z,98585.19
2019-03-05T09:49:37.413Z,98585.33
2019-03-05T09:52:10.420Z,98590.66
2019-03-05T09:54:44.153Z,98595.10
2019-03-05T09:57:17.618Z,98588.70
2019-03-05T09:59:51.290Z,98591.80
2019-03-05T10:02:24.743Z,98597.77
2019-03-05T10:04:57.581Z,98610.86
2019-03-05T10:07:30.464Z,98606.30
2019-03-05T10:10:05.488Z,98612.55
2019-03-05T10:12:38.837Z,98614.56
2019-03-05T10:15:14.899Z,98607.92
2019-03-05T10:17:50.035Z,98609.85
2019-03-05T10:20:23.049Z,98618.06
2019-03-05T10:22:58.007Z,98604.95
2019-03-05T10:25:31.363Z,98603.21
2019-03-05T10:28:03.967Z,98609.24
2019-03-05T10:30:37.345Z,98606.81
2019-03-05T10:33:11.482Z,98602.00
2019-03-05T10:35:46.752Z,98602.33
2019-03-05T10:38:20.256Z,98611.17
2019-03-05T10:40:53.870Z,98623.74
2019-03-05T10:43:27.694Z,98621.74
2019-03-05T10:46:00.764Z,98631.08
2019-03-05T10:48:34.772Z,98643.30
2019-03-05T10:51:07.641Z,98637.95
2019-03-05T10:53:41.186Z,98636.55
2019-03-05T10:56:14.222Z,98640.22
2019-03-05T10:58:48.092Z,98643.09
2019-03-05T11:01:21.647Z,98646.13
2019-03-05T11:03:55.349Z,98652.66
2019-03-05T11:06:30.580Z,98654.39
2019-03-05T11:09:04.517Z,98657.09
2019-03-05T11:11:39.195Z,98677.05
2019-03-05T11:14:12.296Z,98670.14
2019-03-05T11:16:46.005Z,98669.06
2019-03-05T11:19:19.465Z,98665.87
2019-03-05T11:21:52.416Z,98680.52
2019-03-05T11:24:25.111Z,98677.59
2019-03-05T11:26:58.961Z,98682.99
2019-03-05T11:29:32.165Z,98694.77
2019-03-05T11:32:05.920Z,98686.42
2019-03-05T11:34:38.992Z,98690.48
2019-03-05T11:37:12.123Z,98691.41
2019-03-05T11:39:45.545Z,98689.32
2019-03-05T11:42:18.995Z,98690.34
2019-03-05T11:45:03.939Z,98695.08
2019-03-05T11:47:26.962Z,98696.50
2019-03-05T11:50:00.887Z,98705.80
2019-03-05T11:52:34.825Z,98715.52
2019-03-05T11:55:09.622Z,98722.92
2019-03-05T11:57:42.334Z,98715.97
2019-03-05T12:00:42.179Z,98716.84
2019-03-05T12:03:15.958Z,98712.31
2019-03-05T12:05:49.380Z,98719.69
2019-03-05T12:08:22.735Z,98724.95
2019-03-05T12:10:55.999Z,98723.61
2019-03-05T12:13:29.521Z,98733.13
2019-03-05T12:16:07.572Z,98741.34
2019-03-05T12:18:40.359Z,98735.91
2019-03-05T12:21:15.265Z,98742.17
2019-03-05T12:23:49.256Z,98743.51
2019-03-05T12:26:22.698Z,98749.91
2019-03-05T12:28:56.769Z,98744.89
2019-03-05T12:31:30.546Z,98748.09
2019-03-05T12:34:04.074Z,98749.45
2019-03-05T12:36:36.848Z,98759.72
2019-03-05T12:39:11.805Z,98762.77
2019-03-05T12:41:45.408Z,98754.23
2019-03-05T12:44:17.978Z,98753.72
2019-03-05T12:46:51.084Z,98764.75
2019-03-05T12:49:24.587Z,98765.64
2019-03-05T12:51:59.093Z,98770.85
2019-03-05T12:54:32.485Z,98770.77
2019-03-05T12:57:05.981Z,98772.91
2019-03-05T12:59:39.102Z,98775.73
2019-03-05T13:02:12.081Z,98784.60
2019-03-05T13:04:45.166Z,98778.37
2019-03-05T13:07:19.025Z,98781.50
2019-03-05T13:09:56.840Z,98777.52
2019-03-05T13:12:28.203Z,98783.50
2019-03-05T13:15:01.635Z,98774.78
2019-03-05T13:17:35.018Z,98774.19
2019-03-05T13:20:11.596Z,98782.68
2019-03-05T13:22:45.692Z,98785.33
2019-03-05T13:25:18.797Z,98792.00
2019-03-05T13:27:52.207Z,98794.66
2019-03-05T13:30:26.112Z,98794.69
2019-03-05T13:33:01.194Z,98793.34
2019-03-05T13:35:34.833Z,98797.39
2019-03-05T13:38:09.505Z,98804.42
2019-03-05T13:40:42.367Z,98805.14
2019-03-05T13:43:16.132Z,98803.69
2019-03-05T13:45:50.398Z,98809.38
2019-03-05T13:48:57.958Z,98811.52
2019-03-05T13:52:24.815Z,98806.22
2019-03-05T13:55:12.918Z,98796.00
2019-03-05T13:58:22.565Z,98801.26
2019-03-05T14:00:56.076Z,98805.47
2019-03-05T14:03:39.856Z,98808.27
2019-03-05T14:06:44.788Z,98807.77
2019-03-05T14:09:19.716Z,98815.93
2019-03-05T14:11:52.935Z,98830.20
2019-03-05T14:14:29.580Z,98836.82
2019-03-05T14:17:22.661Z,98830.84
2019-03-05T14:19:55.915Z,98833.04
2019-03-05T14:22:29.327Z,98831.05
2019-03-05T14:25:03.145Z,98835.81
2019-03-05T14:27:36.741Z,98842.58
2019-03-05T14:30:13.325Z,98835.77
2019-03-05T14:32:46.219Z,98841.10
2019-03-05T14:35:21.187Z,98848.64
2019-03-05T14:37:55.145Z,98847.47
2019-03-05T14:40:30.188Z,98838.97
2019-03-05T14:43:05.884Z,98842.95
2019-03-05T14:45:39.073Z,98835.99
2019-03-05T14:48:12.283Z,98831.95
2019-03-05T14:50:46.286Z,98845.34
2019-03-05T14:53:19.747Z,98838.29
2019-03-05T14:55:54.549Z,98843.75
2019-03-05T14:58:28.259Z,98835.83
2019-03-05T15:01:01.124Z,98843.80
2019-03-05T15:03:35.750Z,98849.63
2019-03-05T15:06:11.125Z,98848.89
2019-03-05T15:08:44.697Z,98849.84
2019-03-05T15:11:18.291Z,98851.95
2019-03-05T15:13:51.353Z,98857.63
2019-03-05T15:16:24.448Z,98853.02
2019-03-05T15:18:58.247Z,98860.37
2019-03-05T15:21:31.632Z,98864.59
2019-03-05T15:24:04.684Z,98862.28
2019-03-05T15:26:37.426Z,98855.47
2019-03-05T15:29:10.881Z,98865.89
2019-03-05T15:31:43.467Z,98865.35
2019-03-05T15:34:16.860Z,98862.91
2019-03-05T15:36:51.993Z,98865.06
2019-03-05T15:39:25.095Z,98872.98
2019-03-05T15:41:57.790Z,98864.82
2019-03-05T15:44:31.148Z,98864.06
2019-03-05T15:47:05.080Z,98869.84
2019-03-05T15:49:38.514Z,98868.73
2019-03-05T15:52:11.174Z,98874.75
2019-03-05T15:54:44.726Z,98877.70
2019-03-05T15:57:25.899Z,98876.96
2019-03-05T15:59:53.476Z,98878.73
2019-03-05T16:02:26.803Z,98877.31
2019-03-05T16:05:11.105Z,98885.89
2019-03-05T16:07:34.929Z,98898.79
2019-03-05T16:10:09.002Z,98900.52
2019-03-05T16:12:42.590Z,98903.70
2019-03-05T16:15:18.593Z,98904.23
2019-03-05T16:17:51.568Z,98904.43
2019-03-05T16:20:26.099Z,98903.98
2019-03-05T16:23:00.959Z,98906.06
2019-03-05T16:25:33.941Z,98909.33
2019-03-05T16:28:07.686Z,98916.82
2019-03-05T16:31:03.843Z,98921.74
2019-03-05T16:33:45.629Z,98932.55
2019-03-05T16:36:48.736Z,98940.33
2019-03-05T16:39:47.916Z,98938.39
2019-03-05T16:42:38.192Z,98939.11
2019-03-05T16:45:18.661Z,98951.28
2019-03-05T16:48:14.179Z,98951.50
2019-03-05T16:51:02.563Z,98955.21
2019-03-05T16:53:54.243Z,98958.19
2019-03-05T16:57:02.369Z,98965.33
2019-03-05T16:59:55.154Z,98965.09
2019-03-05T17:02:43.784Z,98966.72
2019-03-05T17:05:38.099Z,98972.45
2019-03-05T17:08:23.162Z,98973.31
2019-03-05T17:11:25.315Z,98979.90
2019-03-05T17:13:59.137Z,98988.59
2019-03-05T17:16:32.555Z,98992.17
2019-03-05T17:19:06.141Z,98998.94
2019-03-05T17:21:39.984Z,99005.75
2019-03-05T17:24:14.159Z,99010.29
2019-03-05T17:26:47.250Z,99004.84
2019-03-05T17:29:21.213Z,99010.09
2019-03-05T17:31:53.871Z,99015.80
2019-03-05T17:34:27.640Z,99021.61
2019-03-05T17:37:01.469Z,99026.00
2019-03-05T17:39:36.279Z,99025.02
2019-03-05T17:42:09.763Z,99039.73
2019-03-05T17:44:43.578Z,99047.64
2019-03-05T17:47:16.315Z,99045.63
2019-03-05T17:49:49.446Z,99049.68
2019-03-05T17:52:23.316Z,99052.67
2019-03-05T17:54:57.263Z,99058.34
2019-03-05T17:57:30.244Z,99066.95
2019-03-05T18:00:04.521Z,99068.80
2019-03-05T18:02:40.474Z,99070.98
2019-03-05T18:05:14.122Z,99072.05
2019-03-05T18:07:47.219Z,99079.22
2019-03-05T18:10:20.729Z,99079.95
2019-03-05T18:12:55.029Z,99093.72
2019-03-05T18:15:28.849Z,99088.73
2019-03-05T18:18:02.242Z,99095.75
2019-03-05T18:20:36.088Z,99093.77
2019-03-05T18:23:09.606Z,99095.41
2019-03-05T18:25:43.242Z,99101.15
2019-03-05T18:28:16.748Z,99104.03
2019-03-05T18:30:49.413Z,99111.89
2019-03-05T18:33:22.801Z,99113.27
2019-03-05T18:35:56.323Z,99113.95
2019-03-05T18:38:30.200Z,99113.50
2019-03-05T18:41:03.853Z,99117.23
2019-03-05T18:43:37.388Z,99119.77
2019-03-05T18:46:10.533Z,99121.33
2019-03-05T18:48:44.062Z,99126.20
2019-03-05T18:51:19.712Z,99127.43
2019-03-05T18:53:53.243Z,99127.34
2019-03-05T18:56:29.777Z,99129.05
2019-03-05T18:59:03.852Z,99128.11
2019-03-05T19:01:37.067Z,99129.69
2019-03-05T19:04:11.072Z,99124.64
2019-03-05T19:06:44.310Z,99134.22
2019-03-05T19:09:18.872Z,99134.80
2019-03-05T19:11:52.063Z,99140.28
2019-03-05T19:14:26.245Z,99141.00
2019-03-05T19:16:59.918Z,99142.50
2019-03-05T19:19:33.054Z,99135.33
2019-03-05T19:22:06.128Z,99135.88
2019-03-05T19:24:39.888Z,99137.42
2019-03-05T19:27:12.585Z,99144.57
2019-03-05T19:29:46.185Z,99142.69
2019-03-05T19:32:19.366Z,99142.48
2019-03-05T19:34:53.091Z,99142.45
2019-03-05T19:37:26.284Z,99149.72
2019-03-05T19:39:59.411Z,99150.45
2019-03-05T19:42:32.452Z,99152.19
2019-03-05T19:45:06.167Z,99154.19
2019-03-05T19:47:39.653Z,99156.27
2019-03-05T19:50:14.757Z,99165.23
2019-03-05T19:52:48.194Z,99162.83
2019-03-05T19:55:22.125Z,99164.44
2019-03-05T19:58:07.318Z,99164.12
2019-03-05T20:00:49.353Z,99170.85
2019-03-05T20:03:22.268Z,99169.80
2019-03-05T20:05:56.678Z,99175.41
2019-03-05T20:08:39.139Z,99180.80
2019-03-05T20:11:04.490Z,99181.61
2019-03-05T20:13:37.845Z,99173.17
2019-03-05T20:16:12.405Z,99178.64
2019-03-05T20:18:46.173Z,99177.38
2019-03-05T20:21:19.735Z,99184.86
2019-03-05T20:23:53.010Z,99186.36
2019-03-05T20:26:26.602Z,99186.65
2019-03-05T20:28:59.845Z,99187.09
2019-03-05T20:31:33.763Z,99193.05
2019-03-05T20:34:07.508Z,99189.94
2019-03-05T20:36:41.227Z,99193.02
2019-03-05T20:39:15.411Z,99199.48
2019-03-05T20:41:49.592Z,99196.78
2019-03-05T20:44:23.821Z,99195.85
2019-03-05T20:46:57.051Z,99200.89
2019-03-05T20:49:30.100Z,99197.85
2019-03-05T20:52:03.870Z,99202.53
2019-03-05T20:54:37.784Z,99195.56
2019-03-05T20:57:10.558Z,99203.36
2019-03-05T20:59:43.964Z,99208.11
2019-03-05T21:02:16.962Z,99211.69
2019-03-05T21:04:50.754Z,99210.98
2019-03-05T21:07:24.306Z,99222.30
2019-03-05T21:09:58.841Z,99226.86
2019-03-05T21:12:32.700Z,99225.08
2019-03-05T21:15:05.893Z,99235.31
2019-03-05T21:17:39.927Z,99233.55
2019-03-05T21:20:14.067Z,99233.55
2019-03-05T21:22:47.125Z,99227.55
2019-03-05T21:25:20.159Z,99229.43
2019-03-05T21:27:54.399Z,99228.08
2019-03-05T21:30:27.998Z,99228.23
2019-03-05T21:33:01.095Z,99223.34
2019-03-05T21:35:36.396Z,99235.14
2019-03-05T21:38:10.229Z,99228.31
2019-03-05T21:40:43.785Z,99231.66
2019-03-05T21:43:17.841Z,99227.62
2019-03-05T21:45:51.742Z,99230.14
2019-03-05T21:48:25.552Z,99232.89
2019-03-05T21:50:58.410Z,99233.49
2019-03-05T21:53:32.042Z,99223.66
2019-03-05T21:56:05.970Z,99237.02
2019-03-05T21:58:39.401Z,99235.53
2019-03-05T22:01:13.418Z,99237.13
2019-03-05T22:03:46.837Z,99236.92
2019-03-05T22:06:20.054Z,99246.03
2019-03-05T22:08:53.285Z,99243.27
2019-03-05T22:11:26.920Z,99235.42
2019-03-05T22:14:00.735Z,99240.81
2019-03-05T22:16:34.153Z,99240.38
2019-03-05T22:19:07.313Z,99241.18
2019-03-05T22:21:40.352Z,99245.21
2019-03-05T22:24:13.496Z,99250.40
2019-03-05T22:26:47.562Z,99246.22
2019-03-05T22:29:22.113Z,99253.40
2019-03-05T22:31:56.239Z,99248.16
2019-03-05T22:34:29.206Z,99246.35
2019-03-05T22:37:02.244Z,99248.72
2019-03-05T22:39:35.722Z,99253.05
2019-03-05T22:42:08.941Z,99243.67
2019-03-05T22:44:41.622Z,99252.40
2019-03-05T22:47:15.643Z,99254.00
2019-03-05T22:49:48.830Z,99255.78
2019-03-05T22:52:23.114Z,99254.30
2019-03-05T22:54:57.065Z,99244.91
2019-03-05T22:57:30.747Z,99250.61
2019-03-05T23:00:08.732Z,99251.75
2019-03-05T23:02:43.266Z,99253.20
2019-03-05T23:05:17.325Z,99255.24
2019-03-05T23:07:50.991Z,99255.03
2019-03-05T23:10:24.411Z,99262.52
2019-03-05T23:13:00.421Z,99260.08
2019-03-05T23:15:38.137Z,99258.48
2019-03-05T23:18:11.320Z,99260.08
2019-03-05T23:20:44.076Z,99259.87
2019-03-05T23:23:19.257Z,99262.56
2019-03-05T23:25:53.201Z,99261.67
2019-03-05T23:28:26.873Z,99255.83
2019-03-05T23:31:00.048Z,99260.22
2019-03-05T23:33:32.625Z,99260.11
2019-03-05T23:36:05.647Z,99261.23
2019-03-05T23:38:38.697Z,99261.69
2019-03-05T23:41:12.102Z,99257.20
2019-03-05T23:43:44.809Z,99258.78
2019-03-05T23:46:18.283Z,99255.19
